sensor_id;sensor_type;location;lat;lon;timestamp;P1;durP1;ratioP1;P2;durP2;ratioP2
65031;SDS011;51593;55.714;37.436;2022-09-09T00:00:27;3.65;;;2.38;;
65031;SDS011;51593;55.714;37.436;2022-09-09T00:03:00;3.85;;;2.20;;
65031;SDS011;51593;55.714;37.436;2022-09-09T00:14:34;4.18;;;2.47;;
65031;SDS011;51593;55.714;37.436;2022-09-09T00:17:09;3.78;;;2.50;;
65031;SDS011;51593;55.714;37.436;2022-09-09T00:19:56;5.72;;;2.45;;
65031;SDS011;51593;55.714;37.436;2022-09-09T00:22:29;3.75;;;2.35;;
65031;SDS011;51593;55.714;37.436;2022-09-09T00:25:05;4.05;;;2.40;;
65031;SDS011;51593;55.714;37.436;2022-09-09T00:27:46;4.30;;;2.58;;
65031;SDS011;51593;55.714;37.436;2022-09-09T00:30:18;4.40;;;2.90;;
65031;SDS011;51593;55.714;37.436;2022-09-09T00:33:33;4.43;;;2.40;;
65031;SDS011;51593;55.714;37.436;2022-09-09T00:35:47;6.07;;;2.70;;
65031;SDS011;51593;55.714;37.436;2022-09-09T00:43:38;3.60;;;2.58;;
65031;SDS011;51593;55.714;37.436;2022-09-09T00:48:34;3.88;;;2.53;;
65031;SDS011;51593;55.714;37.436;2022-09-09T00:51:09;4.25;;;2.63;;
65031;SDS011;51593;55.714;37.436;2022-09-09T00:56:37;5.10;;;2.80;;
65031;SDS011;51593;55.714;37.436;2022-09-09T01:01:36;6.60;;;3.00;;
65031;SDS011;51593;55.714;37.436;2022-09-09T01:04:03;4.70;;;2.75;;
65031;SDS011;51593;55.714;37.436;2022-09-09T01:06:35;6.57;;;2.67;;
65031;SDS011;51593;55.714;37.436;2022-09-09T01:12:03;6.30;;;3.40;;
65031;SDS011;51593;55.714;37.436;2022-09-09T01:20:04;4.32;;;2.63;;
65031;SDS011;51593;55.714;37.436;2022-09-09T01:28:25;4.57;;;2.80;;
65031;SDS011;51593;55.714;37.436;2022-09-09T01:30:56;5.10;;;3.00;;
65031;SDS011;51593;55.714;37.436;2022-09-09T01:33:24;4.00;;;2.72;;
65031;SDS011;51593;55.714;37.436;2022-09-09T01:39:08;4.68;;;2.75;;
65031;SDS011;51593;55.714;37.436;2022-09-09T01:41:35;6.07;;;2.70;;
65031;SDS011;51593;55.714;37.436;2022-09-09T01:44:10;4.65;;;2.80;;
65031;SDS011;51593;55.714;37.436;2022-09-09T01:46:38;4.65;;;2.97;;
65031;SDS011;51593;55.714;37.436;2022-09-09T01:49:09;4.63;;;2.72;;
65031;SDS011;51593;55.714;37.436;2022-09-09T01:51:36;4.13;;;2.67;;
65031;SDS011;51593;55.714;37.436;2022-09-09T01:54:06;5.05;;;2.80;;
65031;SDS011;51593;55.714;37.436;2022-09-09T02:02:19;4.90;;;2.55;;
65031;SDS011;51593;55.714;37.436;2022-09-09T02:07:42;6.50;;;2.80;;
65031;SDS011;51593;55.714;37.436;2022-09-09T02:13:16;3.65;;;2.53;;
65031;SDS011;51593;55.714;37.436;2022-09-09T02:21:42;5.30;;;3.15;;
65031;SDS011;51593;55.714;37.436;2022-09-09T02:24:09;6.00;;;2.95;;
65031;SDS011;51593;55.714;37.436;2022-09-09T02:26:42;5.93;;;2.97;;
65031;SDS011;51593;55.714;37.436;2022-09-09T02:29:16;5.70;;;2.95;;
65031;SDS011;51593;55.714;37.436;2022-09-09T02:31:45;6.45;;;2.90;;
65031;SDS011;51593;55.714;37.436;2022-09-09T02:34:17;7.30;;;2.60;;
65031;SDS011;51593;55.714;37.436;2022-09-09T02:36:46;5.68;;;3.00;;
65031;SDS011;51593;55.714;37.436;2022-09-09T02:39:14;6.50;;;3.00;;
65031;SDS011;51593;55.714;37.436;2022-09-09T02:41:40;6.20;;;2.90;;
65031;SDS011;51593;55.714;37.436;2022-09-09T02:44:14;4.18;;;2.60;;
65031;SDS011;51593;55.714;37.436;2022-09-09T02:46:48;5.03;;;2.78;;
65031;SDS011;51593;55.714;37.436;2022-09-09T02:52:05;3.97;;;2.85;;
65031;SDS011;51593;55.714;37.436;2022-09-09T02:54:35;3.92;;;2.60;;
65031;SDS011;51593;55.714;37.436;2022-09-09T02:57:17;5.88;;;2.80;;
65031;SDS011;51593;55.714;37.436;2022-09-09T02:59:47;7.90;;;3.00;;
65031;SDS011;51593;55.714;37.436;2022-09-09T03:02:14;4.03;;;2.70;;
65031;SDS011;51593;55.714;37.436;2022-09-09T03:04:43;4.30;;;2.67;;
65031;SDS011;51593;55.714;37.436;2022-09-09T03:07:11;7.00;;;2.92;;
65031;SDS011;51593;55.714;37.436;2022-09-09T03:09:37;3.90;;;2.50;;
65031;SDS011;51593;55.714;37.436;2022-09-09T03:12:03;7.10;;;2.72;;
65031;SDS011;51593;55.714;37.436;2022-09-09T03:14:32;4.90;;;2.40;;
65031;SDS011;51593;55.714;37.436;2022-09-09T03:16:57;4.30;;;2.33;;
65031;SDS011;51593;55.714;37.436;2022-09-09T03:19:29;3.95;;;2.60;;
65031;SDS011;51593;55.714;37.436;2022-09-09T03:21:55;4.45;;;2.50;;
65031;SDS011;51593;55.714;37.436;2022-09-09T03:24:22;4.82;;;2.60;;
65031;SDS011;51593;55.714;37.436;2022-09-09T03:26:48;7.47;;;2.80;;
65031;SDS011;51593;55.714;37.436;2022-09-09T03:29:16;3.08;;;2.42;;
65031;SDS011;51593;55.714;37.436;2022-09-09T03:31:44;5.97;;;2.63;;
65031;SDS011;51593;55.714;37.436;2022-09-09T03:34:11;4.88;;;2.30;;
65031;SDS011;51593;55.714;37.436;2022-09-09T03:36:36;3.65;;;2.28;;
65031;SDS011;51593;55.714;37.436;2022-09-09T03:39:03;4.30;;;2.40;;
65031;SDS011;51593;55.714;37.436;2022-09-09T03:41:30;3.90;;;2.50;;
65031;SDS011;51593;55.714;37.436;2022-09-09T03:43:57;6.32;;;2.50;;
65031;SDS011;51593;55.714;37.436;2022-09-09T03:46:25;4.10;;;2.40;;
65031;SDS011;51593;55.714;37.436;2022-09-09T03:48:51;3.45;;;2.00;;
65031;SDS011;51593;55.714;37.436;2022-09-09T03:51:20;5.38;;;2.55;;
65031;SDS011;51593;55.714;37.436;2022-09-09T03:53:47;3.78;;;2.42;;
65031;SDS011;51593;55.714;37.436;2022-09-09T03:56:14;4.47;;;2.42;;
65031;SDS011;51593;55.714;37.436;2022-09-09T03:58:40;4.20;;;2.28;;
65031;SDS011;51593;55.714;37.436;2022-09-09T04:01:16;4.80;;;2.42;;
65031;SDS011;51593;55.714;37.436;2022-09-09T04:03:44;4.35;;;2.53;;
65031;SDS011;51593;55.714;37.436;2022-09-09T04:06:13;6.40;;;2.60;;
65031;SDS011;51593;55.714;37.436;2022-09-09T04:08:42;5.68;;;2.67;;
65031;SDS011;51593;55.714;37.436;2022-09-09T04:11:08;4.18;;;2.60;;
65031;SDS011;51593;55.714;37.436;2022-09-09T04:13:36;7.68;;;2.70;;
65031;SDS011;51593;55.714;37.436;2022-09-09T04:16:06;5.05;;;2.50;;
65031;SDS011;51593;55.714;37.436;2022-09-09T04:18:34;6.88;;;2.78;;
65031;SDS011;51593;55.714;37.436;2022-09-09T04:21:00;5.93;;;2.47;;
65031;SDS011;51593;55.714;37.436;2022-09-09T04:23:29;5.85;;;2.53;;
65031;SDS011;51593;55.714;37.436;2022-09-09T04:25:58;3.60;;;2.50;;
65031;SDS011;51593;55.714;37.436;2022-09-09T04:28:25;5.43;;;2.50;;
65031;SDS011;51593;55.714;37.436;2022-09-09T04:30:57;4.13;;;2.50;;
65031;SDS011;51593;55.714;37.436;2022-09-09T04:33:25;6.07;;;2.67;;
65031;SDS011;51593;55.714;37.436;2022-09-09T04:35:53;5.50;;;2.45;;
65031;SDS011;51593;55.714;37.436;2022-09-09T04:38:21;4.88;;;2.65;;
65031;SDS011;51593;55.714;37.436;2022-09-09T04:40:49;4.55;;;2.67;;
65031;SDS011;51593;55.714;37.436;2022-09-09T04:43:17;5.80;;;2.45;;
65031;SDS011;51593;55.714;37.436;2022-09-09T04:48:28;4.30;;;2.40;;
65031;SDS011;51593;55.714;37.436;2022-09-09T04:53:31;4.07;;;2.42;;
65031;SDS011;51593;55.714;37.436;2022-09-09T04:56:07;5.47;;;2.80;;
65031;SDS011;51593;55.714;37.436;2022-09-09T04:58:40;5.93;;;2.70;;
65031;SDS011;51593;55.714;37.436;2022-09-09T05:01:13;8.93;;;2.60;;
65031;SDS011;51593;55.714;37.436;2022-09-09T05:03:48;7.00;;;2.70;;
65031;SDS011;51593;55.714;37.436;2022-09-09T05:06:20;5.90;;;2.78;;
65031;SDS011;51593;55.714;37.436;2022-09-09T05:08:49;6.78;;;2.67;;
65031;SDS011;51593;55.714;37.436;2022-09-09T05:11:24;6.43;;;2.97;;
65031;SDS011;51593;55.714;37.436;2022-09-09T05:16:20;3.88;;;2.53;;
65031;SDS011;51593;55.714;37.436;2022-09-09T05:18:46;6.63;;;2.70;;
65031;SDS011;51593;55.714;37.436;2022-09-09T05:21:13;4.63;;;2.80;;
65031;SDS011;51593;55.714;37.436;2022-09-09T05:23:40;3.90;;;2.70;;
65031;SDS011;51593;55.714;37.436;2022-09-09T05:26:07;6.88;;;2.97;;
65031;SDS011;51593;55.714;37.436;2022-09-09T05:28:37;5.18;;;3.00;;
65031;SDS011;51593;55.714;37.436;2022-09-09T05:31:04;6.57;;;2.83;;
65031;SDS011;51593;55.714;37.436;2022-09-09T05:33:34;5.70;;;2.85;;
65031;SDS011;51593;55.714;37.436;2022-09-09T05:36:04;5.22;;;2.92;;
65031;SDS011;51593;55.714;37.436;2022-09-09T05:38:32;6.50;;;3.13;;
65031;SDS011;51593;55.714;37.436;2022-09-09T05:40:59;10.70;;;2.90;;
65031;SDS011;51593;55.714;37.436;2022-09-09T05:43:26;5.57;;;3.00;;
65031;SDS011;51593;55.714;37.436;2022-09-09T05:46:00;7.20;;;2.90;;
65031;SDS011;51593;55.714;37.436;2022-09-09T05:48:30;7.20;;;2.90;;
65031;SDS011;51593;55.714;37.436;2022-09-09T05:53:43;6.38;;;2.72;;
65031;SDS011;51593;55.714;37.436;2022-09-09T05:56:11;12.80;;;3.30;;
65031;SDS011;51593;55.714;37.436;2022-09-09T05:58:42;5.97;;;2.92;;
65031;SDS011;51593;55.714;37.436;2022-09-09T06:01:12;8.32;;;2.80;;
65031;SDS011;51593;55.714;37.436;2022-09-09T06:03:41;6.40;;;2.70;;
65031;SDS011;51593;55.714;37.436;2022-09-09T06:06:10;7.30;;;2.85;;
65031;SDS011;51593;55.714;37.436;2022-09-09T06:08:38;4.30;;;2.83;;
65031;SDS011;51593;55.714;37.436;2022-09-09T06:11:10;4.35;;;2.30;;
65031;SDS011;51593;55.714;37.436;2022-09-09T06:13:39;4.53;;;2.50;;
65031;SDS011;51593;55.714;37.436;2022-09-09T06:16:06;8.20;;;2.70;;
65031;SDS011;51593;55.714;37.436;2022-09-09T06:18:34;5.78;;;2.35;;
65031;SDS011;51593;55.714;37.436;2022-09-09T06:21:02;6.18;;;2.30;;
65031;SDS011;51593;55.714;37.436;2022-09-09T06:23:35;4.43;;;2.28;;
65031;SDS011;51593;55.714;37.436;2022-09-09T06:26:07;3.47;;;1.90;;
65031;SDS011;51593;55.714;37.436;2022-09-09T06:28:35;4.10;;;2.47;;
65031;SDS011;51593;55.714;37.436;2022-09-09T06:31:03;7.63;;;2.60;;
65031;SDS011;51593;55.714;37.436;2022-09-09T06:33:31;4.80;;;2.22;;
65031;SDS011;51593;55.714;37.436;2022-09-09T06:36:01;6.53;;;2.50;;
65031;SDS011;51593;55.714;37.436;2022-09-09T06:38:31;3.88;;;2.30;;
65031;SDS011;51593;55.714;37.436;2022-09-09T06:40:58;4.78;;;2.25;;
65031;SDS011;51593;55.714;37.436;2022-09-09T06:43:26;9.30;;;2.40;;
65031;SDS011;51593;55.714;37.436;2022-09-09T06:45:58;3.58;;;2.22;;
65031;SDS011;51593;55.714;37.436;2022-09-09T06:48:25;3.08;;;1.80;;
65031;SDS011;51593;55.714;37.436;2022-09-09T06:51:05;6.47;;;2.30;;
65031;SDS011;51593;55.714;37.436;2022-09-09T06:53:36;5.85;;;1.90;;
65031;SDS011;51593;55.714;37.436;2022-09-09T06:56:17;3.75;;;1.67;;
65031;SDS011;51593;55.714;37.436;2022-09-09T06:58:55;5.95;;;2.05;;
65031;SDS011;51593;55.714;37.436;2022-09-09T07:01:28;4.25;;;1.90;;
65031;SDS011;51593;55.714;37.436;2022-09-09T07:04:22;6.15;;;2.10;;
65031;SDS011;51593;55.714;37.436;2022-09-09T07:06:48;5.68;;;2.10;;
65031;SDS011;51593;55.714;37.436;2022-09-09T07:09:21;4.63;;;2.05;;
65031;SDS011;51593;55.714;37.436;2022-09-09T07:11:50;3.80;;;2.00;;
65031;SDS011;51593;55.714;37.436;2022-09-09T07:14:22;13.00;;;2.03;;
65031;SDS011;51593;55.714;37.436;2022-09-09T07:16:53;4.60;;;1.70;;
65031;SDS011;51593;55.714;37.436;2022-09-09T07:19:20;3.50;;;1.98;;
65031;SDS011;51593;55.714;37.436;2022-09-09T07:21:50;5.50;;;1.90;;
65031;SDS011;51593;55.714;37.436;2022-09-09T07:24:18;5.60;;;1.90;;
65031;SDS011;51593;55.714;37.436;2022-09-09T07:26:45;5.38;;;1.90;;
65031;SDS011;51593;55.714;37.436;2022-09-09T07:29:11;3.33;;;1.88;;
65031;SDS011;51593;55.714;37.436;2022-09-09T07:31:40;6.47;;;1.70;;
65031;SDS011;51593;55.714;37.436;2022-09-09T07:34:12;5.35;;;1.67;;
65031;SDS011;51593;55.714;37.436;2022-09-09T07:36:39;4.93;;;1.63;;
65031;SDS011;51593;55.714;37.436;2022-09-09T07:39:08;11.88;;;1.50;;
65031;SDS011;51593;55.714;37.436;2022-09-09T07:41:55;3.80;;;1.50;;
65031;SDS011;51593;55.714;37.436;2022-09-09T07:44:23;5.93;;;1.45;;
65031;SDS011;51593;55.714;37.436;2022-09-09T07:46:59;2.00;;;1.50;;
65031;SDS011;51593;55.714;37.436;2022-09-09T07:49:31;7.03;;;1.70;;
65031;SDS011;51593;55.714;37.436;2022-09-09T07:52:29;3.38;;;1.45;;
65031;SDS011;51593;55.714;37.436;2022-09-09T07:54:59;9.82;;;1.60;;
65031;SDS011;51593;55.714;37.436;2022-09-09T07:57:36;4.03;;;1.60;;
65031;SDS011;51593;55.714;37.436;2022-09-09T08:00:03;3.75;;;1.40;;
65031;SDS011;51593;55.714;37.436;2022-09-09T08:02:38;6.27;;;1.63;;
65031;SDS011;51593;55.714;37.436;2022-09-09T08:05:05;3.15;;;1.63;;
65031;SDS011;51593;55.714;37.436;2022-09-09T08:07:32;3.50;;;1.70;;
65031;SDS011;51593;55.714;37.436;2022-09-09T08:09:58;6.25;;;1.88;;
65031;SDS011;51593;55.714;37.436;2022-09-09T08:12:29;3.20;;;1.60;;
65031;SDS011;51593;55.714;37.436;2022-09-09T08:14:55;3.58;;;1.50;;
65031;SDS011;51593;55.714;37.436;2022-09-09T08:17:23;3.85;;;1.50;;
65031;SDS011;51593;55.714;37.436;2022-09-09T08:19:49;6.35;;;1.75;;
65031;SDS011;51593;55.714;37.436;2022-09-09T08:22:20;2.72;;;1.42;;
65031;SDS011;51593;55.714;37.436;2022-09-09T08:24:48;4.63;;;1.60;;
65031;SDS011;51593;55.714;37.436;2022-09-09T08:27:14;10.05;;;2.00;;
65031;SDS011;51593;55.714;37.436;2022-09-09T08:29:41;7.85;;;1.70;;
65031;SDS011;51593;55.714;37.436;2022-09-09T08:32:08;1.55;;;1.30;;
65031;SDS011;51593;55.714;37.436;2022-09-09T08:34:35;3.00;;;1.50;;
65031;SDS011;51593;55.714;37.436;2022-09-09T08:37:06;6.47;;;1.50;;
65031;SDS011;51593;55.714;37.436;2022-09-09T08:39:38;2.30;;;1.60;;
65031;SDS011;51593;55.714;37.436;2022-09-09T08:42:16;3.15;;;1.40;;
65031;SDS011;51593;55.714;37.436;2022-09-09T08:47:41;5.43;;;1.40;;
65031;SDS011;51593;55.714;37.436;2022-09-09T08:50:32;4.30;;;1.77;;
65031;SDS011;51593;55.714;37.436;2022-09-09T08:55:41;1.73;;;1.30;;
65031;SDS011;51593;55.714;37.436;2022-09-09T08:58:21;3.65;;;1.40;;
65031;SDS011;51593;55.714;37.436;2022-09-09T09:12:16;3.47;;;1.20;;
65031;SDS011;51593;55.714;37.436;2022-09-09T09:14:46;3.25;;;1.33;;
65031;SDS011;51593;55.714;37.436;2022-09-09T09:17:14;3.03;;;1.50;;
65031;SDS011;51593;55.714;37.436;2022-09-09T09:19:41;2.53;;;1.40;;
65031;SDS011;51593;55.714;37.436;2022-09-09T09:27:38;1.45;;;1.27;;
65031;SDS011;51593;55.714;37.436;2022-09-09T09:30:53;1.30;;;1.20;;
65031;SDS011;51593;55.714;37.436;2022-09-09T09:36:12;2.45;;;1.48;;
65031;SDS011;51593;55.714;37.436;2022-09-09T09:38:55;1.40;;;1.25;;
65031;SDS011;51593;55.714;37.436;2022-09-09T09:41:31;4.10;;;1.48;;
65031;SDS011;51593;55.714;37.436;2022-09-09T09:44:05;3.88;;;1.50;;
65031;SDS011;51593;55.714;37.436;2022-09-09T09:46:47;2.70;;;1.40;;
65031;SDS011;51593;55.714;37.436;2022-09-09T09:49:14;1.75;;;1.42;;
65031;SDS011;51593;55.714;37.436;2022-09-09T09:51:42;2.85;;;1.48;;
65031;SDS011;51593;55.714;37.436;2022-09-09T09:56:43;2.53;;;1.52;;
65031;SDS011;51593;55.714;37.436;2022-09-09T10:02:25;2.95;;;1.60;;
65031;SDS011;51593;55.714;37.436;2022-09-09T10:05:12;2.15;;;1.40;;
65031;SDS011;51593;55.714;37.436;2022-09-09T10:07:44;1.92;;;1.40;;
65031;SDS011;51593;55.714;37.436;2022-09-09T10:10:25;2.42;;;1.50;;
65031;SDS011;51593;55.714;37.436;2022-09-09T10:16:06;6.18;;;1.67;;
65031;SDS011;51593;55.714;37.436;2022-09-09T10:26:35;3.17;;;1.40;;
65031;SDS011;51593;55.714;37.436;2022-09-09T10:29:18;3.45;;;1.55;;
65031;SDS011;51593;55.714;37.436;2022-09-09T10:46:10;2.58;;;1.40;;
65031;SDS011;51593;55.714;37.436;2022-09-09T10:48:59;3.90;;;1.50;;
65031;SDS011;51593;55.714;37.436;2022-09-09T10:54:45;2.20;;;1.42;;
65031;SDS011;51593;55.714;37.436;2022-09-09T10:57:39;4.55;;;1.40;;
65031;SDS011;51593;55.714;37.436;2022-09-09T11:00:20;1.60;;;1.40;;
65031;SDS011;51593;55.714;37.436;2022-09-09T11:02:52;2.65;;;1.50;;
65031;SDS011;51593;55.714;37.436;2022-09-09T11:05:25;2.10;;;1.45;;
65031;SDS011;51593;55.714;37.436;2022-09-09T11:08:04;6.03;;;1.58;;
65031;SDS011;51593;55.714;37.436;2022-09-09T11:13:19;3.92;;;1.35;;
65031;SDS011;51593;55.714;37.436;2022-09-09T11:15:52;5.25;;;1.40;;
65031;SDS011;51593;55.714;37.436;2022-09-09T11:18:35;2.55;;;1.50;;
65031;SDS011;51593;55.714;37.436;2022-09-09T11:21:04;2.53;;;1.30;;
65031;SDS011;51593;55.714;37.436;2022-09-09T11:23:40;3.25;;;1.20;;
65031;SDS011;51593;55.714;37.436;2022-09-09T11:26:12;1.65;;;1.40;;
65031;SDS011;51593;55.714;37.436;2022-09-09T11:40:19;1.50;;;1.40;;
65031;SDS011;51593;55.714;37.436;2022-09-09T11:45:42;2.45;;;1.40;;
65031;SDS011;51593;55.714;37.436;2022-09-09T11:48:29;5.28;;;1.60;;
65031;SDS011;51593;55.714;37.436;2022-09-09T11:51:10;2.88;;;1.30;;
65031;SDS011;51593;55.714;37.436;2022-09-09T11:56:48;2.08;;;1.50;;
65031;SDS011;51593;55.714;37.436;2022-09-09T11:59:19;1.65;;;1.30;;
65031;SDS011;51593;55.714;37.436;2022-09-09T12:01:50;3.80;;;1.60;;
65031;SDS011;51593;55.714;37.436;2022-09-09T12:04:28;2.78;;;1.40;;
65031;SDS011;51593;55.714;37.436;2022-09-09T12:07:26;2.97;;;1.30;;
65031;SDS011;51593;55.714;37.436;2022-09-09T12:10:17;4.88;;;1.40;;
65031;SDS011;51593;55.714;37.436;2022-09-09T12:12:46;6.55;;;1.60;;
65031;SDS011;51593;55.714;37.436;2022-09-09T12:17:42;2.33;;;1.30;;
65031;SDS011;51593;55.714;37.436;2022-09-09T12:23:21;2.28;;;1.48;;
65031;SDS011;51593;55.714;37.436;2022-09-09T12:34:11;5.03;;;1.50;;
65031;SDS011;51593;55.714;37.436;2022-09-09T12:36:41;3.67;;;1.40;;
65031;SDS011;51593;55.714;37.436;2022-09-09T12:39:18;1.90;;;1.40;;
65031;SDS011;51593;55.714;37.436;2022-09-09T12:41:53;1.83;;;1.30;;
65031;SDS011;51593;55.714;37.436;2022-09-09T12:44:25;2.00;;;1.50;;
65031;SDS011;51593;55.714;37.436;2022-09-09T12:46:53;5.40;;;1.70;;
65031;SDS011;51593;55.714;37.436;2022-09-09T12:49:31;4.63;;;1.50;;
65031;SDS011;51593;55.714;37.436;2022-09-09T12:52:02;3.50;;;1.50;;
65031;SDS011;51593;55.714;37.436;2022-09-09T12:54:31;7.63;;;1.50;;
65031;SDS011;51593;55.714;37.436;2022-09-09T12:56:59;2.95;;;1.58;;
65031;SDS011;51593;55.714;37.436;2022-09-09T12:59:26;4.85;;;1.48;;
65031;SDS011;51593;55.714;37.436;2022-09-09T13:01:56;4.75;;;1.40;;
65031;SDS011;51593;55.714;37.436;2022-09-09T13:04:23;4.30;;;1.33;;
65031;SDS011;51593;55.714;37.436;2022-09-09T13:06:49;3.72;;;1.52;;
65031;SDS011;51593;55.714;37.436;2022-09-09T13:09:15;4.45;;;1.77;;
65031;SDS011;51593;55.714;37.436;2022-09-09T13:11:41;3.45;;;1.40;;
65031;SDS011;51593;55.714;37.436;2022-09-09T13:14:26;12.40;;;1.77;;
65031;SDS011;51593;55.714;37.436;2022-09-09T13:16:56;2.83;;;1.40;;
65031;SDS011;51593;55.714;37.436;2022-09-09T13:19:23;6.80;;;1.48;;
65031;SDS011;51593;55.714;37.436;2022-09-09T13:21:54;4.72;;;1.67;;
65031;SDS011;51593;55.714;37.436;2022-09-09T13:24:28;3.55;;;1.25;;
65031;SDS011;51593;55.714;37.436;2022-09-09T13:26:56;4.57;;;1.63;;
65031;SDS011;51593;55.714;37.436;2022-09-09T13:29:23;4.80;;;1.23;;
65031;SDS011;51593;55.714;37.436;2022-09-09T13:31:50;5.93;;;1.55;;
65031;SDS011;51593;55.714;37.436;2022-09-09T13:34:28;4.15;;;1.58;;
65031;SDS011;51593;55.714;37.436;2022-09-09T13:37:00;5.30;;;1.50;;
65031;SDS011;51593;55.714;37.436;2022-09-09T13:39:36;2.40;;;1.33;;
65031;SDS011;51593;55.714;37.436;2022-09-09T13:42:03;6.35;;;1.38;;
65031;SDS011;51593;55.714;37.436;2022-09-09T13:44:38;1.98;;;1.30;;
65031;SDS011;51593;55.714;37.436;2022-09-09T13:47:18;4.53;;;1.50;;
65031;SDS011;51593;55.714;37.436;2022-09-09T13:52:56;3.00;;;1.50;;
65031;SDS011;51593;55.714;37.436;2022-09-09T13:55:42;3.72;;;1.42;;
65031;SDS011;51593;55.714;37.436;2022-09-09T13:58:14;4.10;;;1.58;;
65031;SDS011;51593;55.714;37.436;2022-09-09T14:00:42;5.22;;;1.70;;
65031;SDS011;51593;55.714;37.436;2022-09-09T14:03:08;2.20;;;1.38;;
65031;SDS011;51593;55.714;37.436;2022-09-09T14:05:36;5.35;;;1.60;;
65031;SDS011;51593;55.714;37.436;2022-09-09T14:08:06;5.65;;;1.80;;
65031;SDS011;51593;55.714;37.436;2022-09-09T14:10:46;3.83;;;1.50;;
65031;SDS011;51593;55.714;37.436;2022-09-09T14:13:11;3.22;;;1.70;;
65031;SDS011;51593;55.714;37.436;2022-09-09T14:15:37;5.82;;;2.30;;
65031;SDS011;51593;55.714;37.436;2022-09-09T14:18:03;6.68;;;1.70;;
65031;SDS011;51593;55.714;37.436;2022-09-09T14:20:29;2.63;;;1.65;;
65031;SDS011;51593;55.714;37.436;2022-09-09T14:22:55;4.18;;;1.92;;
65031;SDS011;51593;55.714;37.436;2022-09-09T14:25:23;7.20;;;1.70;;
65031;SDS011;51593;55.714;37.436;2022-09-09T14:27:48;5.72;;;1.83;;
65031;SDS011;51593;55.714;37.436;2022-09-09T14:30:16;7.47;;;1.90;;
65031;SDS011;51593;55.714;37.436;2022-09-09T14:32:42;4.78;;;1.80;;
65031;SDS011;51593;55.714;37.436;2022-09-09T14:35:08;7.90;;;2.38;;
65031;SDS011;51593;55.714;37.436;2022-09-09T14:37:33;6.65;;;2.80;;
65031;SDS011;51593;55.714;37.436;2022-09-09T14:40:00;7.15;;;3.35;;
65031;SDS011;51593;55.714;37.436;2022-09-09T14:42:28;10.07;;;3.30;;
65031;SDS011;51593;55.714;37.436;2022-09-09T14:44:55;5.65;;;3.08;;
65031;SDS011;51593;55.714;37.436;2022-09-09T14:47:21;5.80;;;3.20;;
65031;SDS011;51593;55.714;37.436;2022-09-09T14:49:47;7.05;;;3.08;;
65031;SDS011;51593;55.714;37.436;2022-09-09T14:52:34;13.32;;;3.25;;
65031;SDS011;51593;55.714;37.436;2022-09-09T14:55:00;8.75;;;3.15;;
65031;SDS011;51593;55.714;37.436;2022-09-09T14:57:28;8.38;;;3.53;;
65031;SDS011;51593;55.714;37.436;2022-09-09T14:59:53;5.65;;;2.75;;
65031;SDS011;51593;55.714;37.436;2022-09-09T15:02:19;10.80;;;2.88;;
65031;SDS011;51593;55.714;37.436;2022-09-09T15:04:46;9.15;;;2.78;;
65031;SDS011;51593;55.714;37.436;2022-09-09T15:07:12;4.88;;;2.53;;
65031;SDS011;51593;55.714;37.436;2022-09-09T15:09:38;7.70;;;2.80;;
65031;SDS011;51593;55.714;37.436;2022-09-09T15:12:04;12.73;;;2.70;;
65031;SDS011;51593;55.714;37.436;2022-09-09T15:14:29;4.68;;;2.70;;
65031;SDS011;51593;55.714;37.436;2022-09-09T15:16:57;4.85;;;2.65;;
65031;SDS011;51593;55.714;37.436;2022-09-09T15:19:23;5.05;;;2.25;;
65031;SDS011;51593;55.714;37.436;2022-09-09T15:21:49;6.65;;;2.45;;
65031;SDS011;51593;55.714;37.436;2022-09-09T15:24:18;7.60;;;2.30;;
65031;SDS011;51593;55.714;37.436;2022-09-09T15:26:44;7.70;;;2.25;;
65031;SDS011;51593;55.714;37.436;2022-09-09T15:29:12;3.50;;;1.80;;
65031;SDS011;51593;55.714;37.436;2022-09-09T15:31:38;5.30;;;2.33;;
65031;SDS011;51593;55.714;37.436;2022-09-09T15:34:05;11.18;;;2.50;;
65031;SDS011;51593;55.714;37.436;2022-09-09T15:36:32;5.95;;;2.25;;
65031;SDS011;51593;55.714;37.436;2022-09-09T15:39:09;7.47;;;2.80;;
65031;SDS011;51593;55.714;37.436;2022-09-09T15:41:42;9.57;;;2.50;;
65031;SDS011;51593;55.714;37.436;2022-09-09T15:44:12;5.43;;;2.45;;
65031;SDS011;51593;55.714;37.436;2022-09-09T15:46:42;11.88;;;2.88;;
65031;SDS011;51593;55.714;37.436;2022-09-09T15:49:17;6.53;;;3.20;;
65031;SDS011;51593;55.714;37.436;2022-09-09T15:51:45;10.13;;;3.33;;
65031;SDS011;51593;55.714;37.436;2022-09-09T15:54:13;8.85;;;3.03;;
65031;SDS011;51593;55.714;37.436;2022-09-09T15:56:42;7.50;;;2.60;;
65031;SDS011;51593;55.714;37.436;2022-09-09T15:59:07;8.40;;;2.88;;
65031;SDS011;51593;55.714;37.436;2022-09-09T16:01:36;7.88;;;2.83;;
65031;SDS011;51593;55.714;37.436;2022-09-09T16:04:02;9.05;;;2.55;;
65031;SDS011;51593;55.714;37.436;2022-09-09T16:06:29;7.20;;;2.40;;
65031;SDS011;51593;55.714;37.436;2022-09-09T16:09:30;8.50;;;2.35;;
65031;SDS011;51593;55.714;37.436;2022-09-09T16:12:01;5.78;;;2.35;;
65031;SDS011;51593;55.714;37.436;2022-09-09T16:14:31;7.05;;;2.35;;
65031;SDS011;51593;55.714;37.436;2022-09-09T16:17:01;6.28;;;2.30;;
65031;SDS011;51593;55.714;37.436;2022-09-09T16:19:28;8.75;;;2.33;;
65031;SDS011;51593;55.714;37.436;2022-09-09T16:22:07;7.25;;;2.20;;
65031;SDS011;51593;55.714;37.436;2022-09-09T16:24:33;5.28;;;2.10;;
65031;SDS011;51593;55.714;37.436;2022-09-09T16:27:01;6.32;;;2.10;;
65031;SDS011;51593;55.714;37.436;2022-09-09T16:29:27;5.55;;;2.20;;
65031;SDS011;51593;55.714;37.436;2022-09-09T16:31:53;8.70;;;1.88;;
65031;SDS011;51593;55.714;37.436;2022-09-09T16:34:20;8.57;;;2.20;;
65031;SDS011;51593;55.714;37.436;2022-09-09T16:36:48;3.65;;;1.80;;
65031;SDS011;51593;55.714;37.436;2022-09-09T16:39:23;4.95;;;1.90;;
65031;SDS011;51593;55.714;37.436;2022-09-09T16:41:49;5.95;;;2.22;;
65031;SDS011;51593;55.714;37.436;2022-09-09T16:44:19;5.03;;;2.17;;
65031;SDS011;51593;55.714;37.436;2022-09-09T16:46:46;9.00;;;2.20;;
65031;SDS011;51593;55.714;37.436;2022-09-09T16:49:14;5.82;;;2.05;;
65031;SDS011;51593;55.714;37.436;2022-09-09T16:51:42;5.60;;;2.20;;
65031;SDS011;51593;55.714;37.436;2022-09-09T16:54:10;5.50;;;2.17;;
65031;SDS011;51593;55.714;37.436;2022-09-09T16:56:38;7.13;;;2.15;;
65031;SDS011;51593;55.714;37.436;2022-09-09T16:59:11;6.70;;;2.60;;
65031;SDS011;51593;55.714;37.436;2022-09-09T17:01:40;5.88;;;2.28;;
65031;SDS011;51593;55.714;37.436;2022-09-09T17:04:13;5.50;;;2.20;;
65031;SDS011;51593;55.714;37.436;2022-09-09T17:06:41;5.80;;;2.22;;
65031;SDS011;51593;55.714;37.436;2022-09-09T17:09:08;4.03;;;2.05;;
65031;SDS011;51593;55.714;37.436;2022-09-09T17:11:36;6.05;;;2.47;;
65031;SDS011;51593;55.714;37.436;2022-09-09T17:14:03;8.35;;;2.30;;
65031;SDS011;51593;55.714;37.436;2022-09-09T17:16:30;5.30;;;2.40;;
65031;SDS011;51593;55.714;37.436;2022-09-09T17:18:59;5.50;;;2.40;;
65031;SDS011;51593;55.714;37.436;2022-09-09T17:21:27;6.88;;;2.80;;
65031;SDS011;51593;55.714;37.436;2022-09-09T17:23:56;11.38;;;3.05;;
65031;SDS011;51593;55.714;37.436;2022-09-09T17:26:23;7.75;;;2.65;;
65031;SDS011;51593;55.714;37.436;2022-09-09T17:28:53;7.43;;;2.50;;
65031;SDS011;51593;55.714;37.436;2022-09-09T17:31:21;10.30;;;2.70;;
65031;SDS011;51593;55.714;37.436;2022-09-09T17:33:47;4.43;;;2.55;;
65031;SDS011;51593;55.714;37.436;2022-09-09T17:36:19;11.73;;;3.50;;
65031;SDS011;51593;55.714;37.436;2022-09-09T17:39:22;14.10;;;3.05;;
65031;SDS011;51593;55.714;37.436;2022-09-09T17:41:48;10.40;;;3.30;;